createdAt,value
2022-09-24T00:00:07.379Z,0
2022-09-24T00:03:07.605Z,0
2022-09-24T00:06:07.274Z,0
2022-09-24T00:09:07.295Z,0
2022-09-24T00:12:07.319Z,0
2022-09-24T00:15:07.271Z,0
2022-09-24T00:18:07.303Z,0
2022-09-24T00:21:07.319Z,0
2022-09-24T00:24:07.500Z,0
2022-09-24T00:27:07.459Z,0
2022-09-24T00:30:07.326Z,0
2022-09-24T00:33:07.307Z,0
2022-09-24T00:36:07.301Z,0
2022-09-24T00:39:07.292Z,0
2022-09-24T00:42:07.322Z,0
2022-09-24T00:45:07.342Z,0
2022-09-24T00:48:07.290Z,0
2022-09-24T00:51:07.269Z,0
2022-09-24T00:54:07.596Z,0
2022-09-24T00:57:07.290Z,0
2022-09-24T01:00:07.330Z,0
2022-09-24T01:03:07.291Z,0
2022-09-24T01:06:07.298Z,0
2022-09-24T01:09:07.277Z,0
2022-09-24T01:12:07.334Z,0
2022-09-24T01:15:07.279Z,0
2022-09-24T01:18:07.321Z,0
2022-09-24T01:21:07.291Z,0
2022-09-24T01:24:07.471Z,0
2022-09-24T01:27:07.325Z,0
2022-09-24T01:30:07.318Z,0
2022-09-24T01:33:07.278Z,0
2022-09-24T01:36:07.257Z,0
2022-09-24T01:39:07.297Z,0
2022-09-24T01:42:07.351Z,0
2022-09-24T01:45:07.292Z,0
2022-09-24T01:48:07.282Z,0
2022-09-24T01:51:07.285Z,0
2022-09-24T01:54:07.704Z,0
2022-09-24T01:57:07.329Z,0
2022-09-24T02:00:07.292Z,0
2022-09-24T02:03:07.291Z,0
2022-09-24T02:06:07.338Z,0
2022-09-24T02:09:07.310Z,0
2022-09-24T02:12:07.279Z,0
2022-09-24T02:15:07.287Z,0
2022-09-24T02:18:07.536Z,0
2022-09-24T02:21:07.299Z,0
2022-09-24T02:24:07.623Z,0
2022-09-24T02:27:07.282Z,0
2022-09-24T02:30:07.322Z,0
2022-09-24T02:33:07.253Z,0
2022-09-24T02:36:07.289Z,0
2022-09-24T02:39:07.323Z,0
2022-09-24T02:42:07.269Z,0
2022-09-24T02:45:07.289Z,0
2022-09-24T02:48:07.387Z,0
2022-09-24T02:51:07.322Z,0
2022-09-24T02:54:07.508Z,0
2022-09-24T02:57:07.259Z,0
2022-09-24T03:00:07.367Z,0
2022-09-24T03:03:07.737Z,0
2022-09-24T03:06:07.312Z,0
2022-09-24T03:09:07.323Z,0
2022-09-24T03:12:07.349Z,0
2022-09-24T03:15:07.304Z,0
2022-09-24T03:18:07.311Z,0
2022-09-24T03:21:07.262Z,0
2022-09-24T03:24:07.447Z,0
2022-09-24T03:27:07.276Z,0
2022-09-24T03:30:07.318Z,0
2022-09-24T03:33:07.330Z,0
2022-09-24T03:36:07.285Z,0
2022-09-24T03:39:07.353Z,0
2022-09-24T03:42:07.447Z,0
2022-09-24T03:45:07.352Z,0
2022-09-24T03:48:07.272Z,0
2022-09-24T03:51:07.335Z,0
2022-09-24T03:54:07.388Z,0
2022-09-24T03:57:07.278Z,0
2022-09-24T04:00:07.359Z,0
2022-09-24T04:03:07.689Z,0
2022-09-24T04:06:07.267Z,0
2022-09-24T04:09:07.309Z,0
2022-09-24T04:12:07.277Z,0
2022-09-24T04:15:07.297Z,0
2022-09-24T04:18:07.364Z,0
2022-09-24T04:21:07.338Z,0
2022-09-24T04:24:07.621Z,0
2022-09-24T04:27:07.303Z,0
2022-09-24T04:30:07.306Z,0
2022-09-24T04:33:07.363Z,0
2022-09-24T04:36:07.329Z,0
2022-09-24T04:39:07.367Z,3
2022-09-24T04:42:07.309Z,3
2022-09-24T04:45:07.242Z,7
2022-09-24T04:48:07.291Z,10
2022-09-24T04:51:07.310Z,20
2022-09-24T04:54:07.287Z,33
2022-09-24T04:57:07.289Z,57
2022-09-24T05:00:07.300Z,80
2022-09-24T05:03:07.814Z,110
2022-09-24T05:06:07.306Z,147
2022-09-24T05:09:12.898Z,187
2022-09-24T05:12:07.350Z,220
2022-09-24T05:15:07.344Z,277
2022-09-24T05:18:07.406Z,363
2022-09-24T05:21:07.540Z,440
2022-09-24T05:24:07.388Z,500
2022-09-24T05:27:07.421Z,543
2022-09-24T05:30:07.557Z,553
2022-09-24T05:33:07.399Z,580
2022-09-24T05:36:07.287Z,620
2022-09-24T05:39:07.568Z,673
2022-09-24T05:42:07.499Z,757
2022-09-24T05:45:07.394Z,870
2022-09-24T05:48:07.310Z,1013
2022-09-24T05:51:07.317Z,1190
2022-09-24T05:54:07.445Z,1407
2022-09-24T05:57:07.388Z,1590
2022-09-24T06:00:07.426Z,1637
2022-09-24T06:03:07.576Z,1697
2022-09-24T06:06:07.333Z,1880
2022-09-24T06:09:07.869Z,2093
2022-09-24T06:12:07.340Z,2270
2022-09-24T06:15:07.404Z,2467
2022-09-24T06:18:07.416Z,2797
2022-09-24T06:21:07.395Z,3247
2022-09-24T06:24:07.432Z,3650
2022-09-24T06:27:07.332Z,4000
2022-09-24T06:30:07.384Z,4267
2022-09-24T06:33:07.244Z,4663
2022-09-24T06:36:07.313Z,5043
2022-09-24T06:39:07.642Z,5370
2022-09-24T06:42:07.240Z,5563
2022-09-24T06:45:07.341Z,5857
2022-09-24T06:48:07.284Z,6153
2022-09-24T06:51:07.237Z,6537
2022-09-24T06:54:07.266Z,6990
2022-09-24T06:57:07.209Z,7427
2022-09-24T07:00:07.366Z,7870
2022-09-24T07:03:07.257Z,8250
2022-09-24T07:06:07.249Z,8173
2022-09-24T07:09:07.390Z,7583
2022-09-24T07:12:07.284Z,7533
2022-09-24T07:15:07.302Z,7860
2022-09-24T07:18:07.298Z,8637
2022-09-24T07:21:07.278Z,9900
2022-09-24T07:24:07.297Z,10700
2022-09-24T07:27:07.266Z,10963
2022-09-24T07:30:07.317Z,11240
2022-09-24T07:33:07.293Z,12227
2022-09-24T07:36:07.288Z,14963
2022-09-24T07:39:07.336Z,15817
2022-09-24T07:42:07.271Z,18657
2022-09-24T07:45:07.361Z,19460
2022-09-24T07:48:07.290Z,27140
2022-09-24T07:51:07.293Z,27710
2022-09-24T07:54:07.397Z,22363
2022-09-24T07:57:07.240Z,16440
2022-09-24T08:00:07.361Z,14357
2022-09-24T08:03:07.280Z,14430
2022-09-24T08:06:07.243Z,18130
2022-09-24T08:09:07.241Z,16650
2022-09-24T08:12:07.232Z,17193
2022-09-24T08:15:07.349Z,18717
2022-09-24T08:18:07.303Z,16950
2022-09-24T08:21:07.342Z,16987
2022-09-24T08:24:07.388Z,17630
2022-09-24T08:27:07.563Z,18297
2022-09-24T08:30:07.486Z,21037
2022-09-24T08:33:07.277Z,20610
2022-09-24T08:36:07.270Z,20187
2022-09-24T08:39:07.313Z,21523
2022-09-24T08:42:07.260Z,20230
2022-09-24T08:45:07.283Z,23440
2022-09-24T08:48:07.313Z,26147
2022-09-24T08:51:07.291Z,25510
2022-09-24T08:54:07.542Z,24190
2022-09-24T08:57:07.439Z,23577
2022-09-24T09:00:07.363Z,25773
2022-09-24T09:03:07.749Z,22900
2022-09-24T09:06:07.306Z,23333
2022-09-24T09:09:14.602Z,34160
2022-09-24T09:12:07.332Z,25963
2022-09-24T09:15:07.278Z,25373
2022-09-24T09:18:07.323Z,36687
2022-09-24T09:21:07.257Z,36107
2022-09-24T09:24:07.298Z,31197
2022-09-24T09:27:07.483Z,30513
2022-09-24T09:30:13.968Z,26710
2022-09-24T09:33:07.285Z,24537
2022-09-24T09:36:07.307Z,24543
2022-09-24T09:39:07.484Z,27637
2022-09-24T09:42:07.298Z,27897
2022-09-24T09:45:07.429Z,27280
2022-09-24T09:48:07.310Z,27737
2022-09-24T09:51:07.291Z,25497
2022-09-24T09:54:07.588Z,22963
2022-09-24T09:57:07.252Z,22410
2022-09-24T10:00:07.292Z,22227
2022-09-24T10:03:07.926Z,21927
2022-09-24T10:06:07.293Z,21403
2022-09-24T10:09:07.311Z,21137
2022-09-24T10:12:07.246Z,21423
2022-09-24T10:15:07.320Z,21773
2022-09-24T10:18:07.334Z,21467
2022-09-24T10:21:07.263Z,20713
2022-09-24T10:24:07.494Z,19130
2022-09-24T10:27:07.324Z,17143
2022-09-24T10:30:07.352Z,16050
2022-09-24T10:33:07.330Z,17003
2022-09-24T10:36:07.341Z,19963
2022-09-24T10:39:07.261Z,22200
2022-09-24T10:42:07.288Z,23573
2022-09-24T10:45:07.359Z,22840
2022-09-24T10:48:07.309Z,20343
2022-09-24T10:51:07.260Z,18623
2022-09-24T10:54:07.438Z,17697
2022-09-24T10:57:07.311Z,17177
2022-09-24T11:00:07.335Z,17477
2022-09-24T11:03:07.541Z,19253
2022-09-24T11:06:07.284Z,21223
2022-09-24T11:09:07.322Z,22210
2022-09-24T11:12:07.320Z,22517
2022-09-24T11:15:07.278Z,22813
2022-09-24T11:18:07.297Z,22640
2022-09-24T11:21:07.251Z,23417
2022-09-24T11:24:07.470Z,22570
2022-09-24T11:27:07.274Z,22583
2022-09-24T11:30:07.371Z,26670
2022-09-24T11:33:07.256Z,26070
2022-09-24T11:36:07.320Z,23993
2022-09-24T11:39:07.279Z,20787
2022-09-24T11:42:07.263Z,17810
2022-09-24T11:45:07.321Z,16510
2022-09-24T11:48:07.266Z,16733
2022-09-24T11:51:07.266Z,16497
2022-09-24T11:54:07.532Z,15693
2022-09-24T11:57:07.286Z,15007
2022-09-24T12:00:07.418Z,14593
2022-09-24T12:03:07.894Z,14563
2022-09-24T12:06:07.331Z,14193
2022-09-24T12:09:07.333Z,14267
2022-09-24T12:12:07.253Z,14637
2022-09-24T12:15:07.388Z,14393
2022-09-24T12:18:07.310Z,13833
2022-09-24T12:21:07.268Z,13530
2022-09-24T12:24:10.005Z,13197
2022-09-24T12:27:07.318Z,12990
2022-09-24T12:30:07.363Z,12413
2022-09-24T12:33:07.325Z,12607
2022-09-24T12:36:07.312Z,12993
2022-09-24T12:39:07.279Z,12460
2022-09-24T12:42:07.273Z,11847
2022-09-24T12:45:07.297Z,11530
2022-09-24T12:48:07.317Z,11910
2022-09-24T12:51:07.250Z,12833
2022-09-24T12:54:07.503Z,14387
2022-09-24T12:57:07.340Z,14680
2022-09-24T13:00:07.405Z,15107
2022-09-24T13:03:08.051Z,16177
2022-09-24T13:06:07.283Z,16577
2022-09-24T13:09:07.343Z,15817
2022-09-24T13:12:07.288Z,15013
2022-09-24T13:15:07.391Z,14967
2022-09-24T13:18:07.309Z,15793
2022-09-24T13:21:07.290Z,16917
2022-09-24T13:24:07.452Z,19983
2022-09-24T13:27:07.247Z,23343
2022-09-24T13:30:07.325Z,24447
2022-09-24T13:33:07.305Z,24960
2022-09-24T13:36:07.279Z,24483
2022-09-24T13:39:07.582Z,24667
2022-09-24T13:42:07.301Z,37337
2022-09-24T13:45:12.266Z,30257
2022-09-24T13:48:07.324Z,23257
2022-09-24T13:51:07.274Z,23107
2022-09-24T13:54:07.297Z,23900
2022-09-24T13:57:07.307Z,21213
2022-09-24T14:00:07.559Z,20267
2022-09-24T14:03:07.732Z,18223
2022-09-24T14:06:07.286Z,16367
2022-09-24T14:09:07.484Z,14037
2022-09-24T14:12:07.338Z,13280
2022-09-24T14:15:07.306Z,13247
2022-09-24T14:18:12.973Z,12960
2022-09-24T14:21:07.286Z,12570
2022-09-24T14:24:07.303Z,12273
2022-09-24T14:27:07.285Z,11900
2022-09-24T14:30:07.319Z,11530
2022-09-24T14:33:07.303Z,10873
2022-09-24T14:36:07.288Z,10053
2022-09-24T14:39:07.489Z,9137
2022-09-24T14:42:07.331Z,8520
2022-09-24T14:45:07.279Z,8473
2022-09-24T14:48:07.294Z,8637
2022-09-24T14:51:07.290Z,8897
2022-09-24T14:54:07.258Z,8870
2022-09-24T14:57:07.237Z,8710
2022-09-24T15:00:07.430Z,8363
2022-09-24T15:03:07.324Z,7563
2022-09-24T15:06:07.446Z,6670
2022-09-24T15:09:07.527Z,6217
2022-09-24T15:12:07.252Z,6007
2022-09-24T15:15:07.338Z,5767
2022-09-24T15:18:07.341Z,5547
2022-09-24T15:21:07.257Z,5530
2022-09-24T15:24:07.288Z,5470
2022-09-24T15:27:07.245Z,5710
2022-09-24T15:30:07.736Z,6007
2022-09-24T15:33:07.238Z,6170
2022-09-24T15:36:07.317Z,6257
2022-09-24T15:39:07.468Z,6197
2022-09-24T15:42:07.313Z,5967
2022-09-24T15:45:07.336Z,5583
2022-09-24T15:48:07.282Z,5000
2022-09-24T15:51:18.155Z,4367
2022-09-24T15:54:07.318Z,3743
2022-09-24T15:57:07.341Z,3200
2022-09-24T16:00:07.402Z,2810
2022-09-24T16:03:07.644Z,2560
2022-09-24T16:06:07.305Z,2237
2022-09-24T16:09:07.573Z,1930
2022-09-24T16:12:07.336Z,1753
2022-09-24T16:15:07.294Z,1630
2022-09-24T16:18:07.307Z,1470
2022-09-24T16:21:07.249Z,1240
2022-09-24T16:24:07.322Z,1027
2022-09-24T16:27:07.195Z,893
2022-09-24T16:30:07.368Z,863
2022-09-24T16:33:07.246Z,900
2022-09-24T16:36:07.254Z,920
2022-09-24T16:39:07.438Z,850
2022-09-24T16:42:07.282Z,703
2022-09-24T16:45:07.273Z,563
2022-09-24T16:48:07.264Z,473
2022-09-24T16:51:07.491Z,400
2022-09-24T16:54:07.327Z,333
2022-09-24T16:57:07.240Z,283
2022-09-24T17:00:07.295Z,243
2022-09-24T17:03:07.635Z,207
2022-09-24T17:06:07.223Z,173
2022-09-24T17:09:07.276Z,137
2022-09-24T17:12:07.274Z,107
2022-09-24T17:15:07.219Z,80
2022-09-24T17:18:07.282Z,57
2022-09-24T17:21:07.163Z,40
2022-09-24T17:24:07.245Z,30
2022-09-24T17:27:07.191Z,20
2022-09-24T17:30:07.286Z,13
2022-09-24T17:33:44.946Z,7
2022-09-24T17:36:07.285Z,3
2022-09-24T17:39:07.393Z,3
2022-09-24T17:42:07.243Z,0
2022-09-24T17:45:07.221Z,0
2022-09-24T17:48:07.262Z,0
2022-09-24T17:51:07.200Z,0
2022-09-24T17:54:07.298Z,0
2022-09-24T17:57:07.214Z,0
2022-09-24T18:00:07.243Z,0
2022-09-24T18:03:07.598Z,0
2022-09-24T18:06:07.252Z,0
2022-09-24T18:09:07.333Z,0
2022-09-24T18:12:07.225Z,0
2022-09-24T18:15:07.234Z,0
2022-09-24T18:18:07.303Z,0
2022-09-24T18:21:07.355Z,0
2022-09-24T18:24:07.324Z,0
2022-09-24T18:27:07.337Z,0
2022-09-24T18:30:07.323Z,0
2022-09-24T18:33:07.336Z,0
2022-09-24T18:36:07.316Z,0
2022-09-24T18:39:07.417Z,0
2022-09-24T18:42:07.309Z,0
2022-09-24T18:45:07.361Z,0
2022-09-24T18:48:07.309Z,0
2022-09-24T18:51:07.257Z,0
2022-09-24T18:54:07.368Z,0
2022-09-24T18:57:07.279Z,0
2022-09-24T19:00:07.347Z,0
2022-09-24T19:03:08.105Z,0
2022-09-24T19:06:07.357Z,0
2022-09-24T19:09:07.668Z,0
2022-09-24T19:12:07.337Z,0
2022-09-24T19:15:07.409Z,0
2022-09-24T19:18:07.279Z,0
2022-09-24T19:21:07.270Z,0
2022-09-24T19:24:07.321Z,0
2022-09-24T19:27:07.290Z,0
2022-09-24T19:30:07.314Z,0
2022-09-24T19:33:07.283Z,0
2022-09-24T19:36:07.286Z,0
2022-09-24T19:39:07.476Z,0
2022-09-24T19:42:07.338Z,0
2022-09-24T19:45:07.341Z,0
2022-09-24T19:48:07.266Z,0
2022-09-24T19:51:07.289Z,0
2022-09-24T19:54:07.780Z,0
2022-09-24T19:57:07.301Z,0
2022-09-24T20:00:08.089Z,0
2022-09-24T20:03:07.725Z,0
2022-09-24T20:06:07.341Z,0
2022-09-24T20:09:07.302Z,0
2022-09-24T20:12:07.270Z,0
2022-09-24T20:15:07.328Z,0
2022-09-24T20:18:07.386Z,0
2022-09-24T20:21:07.325Z,0
2022-09-24T20:24:07.401Z,0
2022-09-24T20:27:07.328Z,0
2022-09-24T20:30:07.338Z,0
2022-09-24T20:33:07.283Z,0
2022-09-24T20:36:19.776Z,0
2022-09-24T20:39:07.313Z,0
2022-09-24T20:42:07.345Z,0
2022-09-24T20:45:13.146Z,0
2022-09-24T20:48:07.351Z,0
2022-09-24T20:51:07.294Z,0
2022-09-24T20:54:07.426Z,0
2022-09-24T20:57:07.272Z,0
2022-09-24T21:00:07.717Z,0
2022-09-24T21:03:46.645Z,0
2022-09-24T21:06:07.277Z,0
2022-09-24T21:09:07.312Z,0
2022-09-24T21:12:07.288Z,0
2022-09-24T21:15:07.297Z,0
2022-09-24T21:18:42.075Z,0
2022-09-24T21:21:07.314Z,0
2022-09-24T21:24:07.452Z,0
2022-09-24T21:27:07.328Z,0
2022-09-24T21:30:07.354Z,0
2022-09-24T21:33:07.284Z,0
2022-09-24T21:36:07.320Z,0
2022-09-24T21:39:07.327Z,0
2022-09-24T21:42:07.349Z,0
2022-09-24T21:45:07.354Z,0
2022-09-24T21:48:07.335Z,0
2022-09-24T21:51:07.297Z,0
2022-09-24T21:54:07.457Z,0
2022-09-24T21:57:07.277Z,0
2022-09-24T22:00:07.404Z,0
2022-09-24T22:03:07.668Z,0
2022-09-24T22:06:07.346Z,0
2022-09-24T22:09:07.339Z,0
2022-09-24T22:12:07.367Z,0
2022-09-24T22:15:07.277Z,0
2022-09-24T22:18:07.313Z,0
2022-09-24T22:21:07.260Z,0
2022-09-24T22:24:07.382Z,0
2022-09-24T22:27:07.282Z,0
2022-09-24T22:30:07.300Z,0
2022-09-24T22:33:07.317Z,0
2022-09-24T22:36:07.272Z,0
2022-09-24T22:39:07.327Z,0
2022-09-24T22:42:07.363Z,0
2022-09-24T22:45:07.300Z,0
2022-09-24T22:48:07.269Z,0
2022-09-24T22:51:07.330Z,0
2022-09-24T22:54:07.424Z,0
2022-09-24T22:57:07.267Z,0
2022-09-24T23:00:07.356Z,0
2022-09-24T23:03:07.315Z,0
2022-09-24T23:06:07.336Z,0
2022-09-24T23:09:07.316Z,0
2022-09-24T23:12:07.326Z,0
2022-09-24T23:15:07.331Z,0
2022-09-24T23:18:07.285Z,0
2022-09-24T23:21:07.285Z,0
2022-09-24T23:24:07.561Z,0
2022-09-24T23:27:07.260Z,0
2022-09-24T23:30:07.305Z,0
2022-09-24T23:33:07.348Z,0
2022-09-24T23:36:07.315Z,0
2022-09-24T23:39:07.392Z,0
2022-09-24T23:42:07.275Z,0
2022-09-24T23:45:07.282Z,0
2022-09-24T23:48:07.323Z,0
2022-09-24T23:51:07.272Z,0
2022-09-24T23:54:07.307Z,0
2022-09-24T23:57:07.323Z,0
